createdAt,value
2017-10-03T00:00:21.565Z,14.90
2017-10-03T00:02:48.355Z,14.90
2017-10-03T00:05:14.570Z,14.90
2017-10-03T00:07:41.520Z,14.80
2017-10-03T00:10:07.715Z,14.90
2017-10-03T00:12:34.589Z,14.80
2017-10-03T00:15:00.786Z,14.90
2017-10-03T00:17:28.426Z,14.90
2017-10-03T00:19:55.198Z,14.90
2017-10-03T00:22:22.093Z,15.00
2017-10-03T00:24:48.309Z,14.90
2017-10-03T00:27:15.123Z,14.90
2017-10-03T00:29:42.062Z,14.80
2017-10-03T00:32:09.015Z,14.90
2017-10-03T00:34:36.027Z,14.90
2017-10-03T00:37:02.781Z,14.90
2017-10-03T00:39:29.613Z,14.90
2017-10-03T00:41:58.508Z,15.00
2017-10-03T00:44:24.723Z,14.90
2017-10-03T00:46:50.954Z,14.80
2017-10-03T00:49:17.196Z,14.80
2017-10-03T00:51:43.429Z,14.80
2017-10-03T00:54:10.101Z,14.70
2017-10-03T00:56:36.335Z,14.70
2017-10-03T00:59:03.068Z,14.70
2017-10-03T01:01:29.858Z,14.70
2017-10-03T01:03:57.211Z,14.70
2017-10-03T01:06:23.402Z,14.60
2017-10-03T01:08:50.194Z,14.60
2017-10-03T01:11:17.154Z,14.70
2017-10-03T01:13:44.598Z,14.70
2017-10-03T01:16:12.747Z,14.70
2017-10-03T01:18:39.263Z,14.70
2017-10-03T01:21:05.837Z,14.70
2017-10-03T01:23:32.586Z,14.70
2017-10-03T01:25:58.841Z,14.70
2017-10-03T01:28:25.555Z,14.70
2017-10-03T01:30:52.608Z,14.70
2017-10-03T01:33:18.822Z,14.70
2017-10-03T01:35:45.650Z,14.70
2017-10-03T01:38:12.427Z,14.70
2017-10-03T01:40:39.072Z,14.70
2017-10-03T01:43:05.321Z,14.70
2017-10-03T01:45:31.543Z,14.70
2017-10-03T01:47:58.261Z,14.60
2017-10-03T01:50:24.451Z,14.60
2017-10-03T01:52:50.671Z,14.70
2017-10-03T01:55:17.285Z,14.70
2017-10-03T01:57:43.477Z,14.70
2017-10-03T02:00:10.434Z,14.60
2017-10-03T02:02:38.047Z,14.60
2017-10-03T02:05:04.298Z,14.60
2017-10-03T02:07:30.909Z,14.60
2017-10-03T02:09:57.130Z,14.60
2017-10-03T02:12:23.857Z,14.70
2017-10-03T02:14:50.794Z,14.60
2017-10-03T02:17:17.741Z,14.60
2017-10-03T02:19:45.045Z,14.70
2017-10-03T02:22:12.210Z,14.60
2017-10-03T02:24:39.044Z,14.70
2017-10-03T02:27:05.586Z,14.70
2017-10-03T02:29:31.821Z,14.70
2017-10-03T02:31:58.629Z,14.70
2017-10-03T02:34:25.583Z,14.80
2017-10-03T02:36:53.110Z,14.70
2017-10-03T02:39:19.949Z,14.70
2017-10-03T02:41:46.147Z,14.80
2017-10-03T02:44:13.031Z,14.70
2017-10-03T02:46:39.233Z,14.70
2017-10-03T02:49:05.474Z,14.70
2017-10-03T02:51:31.719Z,14.70
2017-10-03T02:53:58.627Z,14.60
2017-10-03T02:56:25.571Z,14.50
2017-10-03T02:58:53.197Z,14.50
2017-10-03T03:01:19.418Z,14.50
2017-10-03T03:03:46.177Z,14.50
2017-10-03T03:06:12.448Z,14.50
2017-10-03T03:08:39.140Z,14.50
2017-10-03T03:11:05.421Z,14.50
2017-10-03T03:13:31.623Z,14.50
2017-10-03T03:15:58.554Z,14.50
2017-10-03T03:18:24.775Z,14.50
2017-10-03T03:20:50.983Z,14.40
2017-10-03T03:23:18.506Z,14.50
2017-10-03T03:25:44.706Z,14.40
2017-10-03T03:28:11.787Z,14.40
2017-10-03T03:30:38.436Z,14.40
2017-10-03T03:33:04.682Z,14.40
2017-10-03T03:35:30.893Z,14.40
2017-10-03T03:37:57.460Z,14.40
2017-10-03T03:40:24.293Z,14.40
2017-10-03T03:42:50.508Z,14.40
2017-10-03T03:45:17.271Z,14.40
2017-10-03T03:47:43.482Z,14.40
2017-10-03T03:50:09.683Z,14.40
2017-10-03T03:52:36.637Z,14.40
2017-10-03T03:55:04.463Z,14.50
2017-10-03T03:57:31.210Z,14.40
2017-10-03T03:59:57.409Z,14.50
2017-10-03T04:02:23.989Z,14.40
2017-10-03T04:04:50.692Z,14.50
2017-10-03T04:07:17.378Z,14.50
2017-10-03T04:09:43.602Z,14.50
2017-10-03T04:12:09.821Z,14.50
2017-10-03T04:14:36.051Z,14.50
2017-10-03T04:17:03.479Z,14.40
2017-10-03T04:19:30.485Z,14.50
2017-10-03T04:21:56.733Z,14.40
2017-10-03T04:24:23.474Z,14.50
2017-10-03T04:26:50.442Z,14.40
2017-10-03T04:29:16.685Z,14.40
2017-10-03T04:31:44.314Z,14.40
2017-10-03T04:34:10.520Z,14.50
2017-10-03T04:36:36.739Z,14.50
2017-10-03T04:39:04.154Z,14.50
2017-10-03T04:41:30.781Z,14.50
2017-10-03T04:43:56.975Z,14.60
2017-10-03T04:46:23.191Z,14.60
2017-10-03T04:48:50.125Z,14.50
2017-10-03T04:51:16.787Z,14.50
2017-10-03T04:53:44.404Z,14.50
2017-10-03T04:56:11.159Z,14.50
2017-10-03T04:58:38.031Z,14.60
2017-10-03T05:01:04.338Z,14.60
2017-10-03T05:03:31.189Z,14.60
2017-10-03T05:05:57.403Z,14.60
2017-10-03T05:08:24.067Z,14.50
2017-10-03T05:10:50.260Z,14.50
2017-10-03T05:13:16.453Z,14.50
2017-10-03T05:15:42.698Z,14.50
2017-10-03T05:18:08.899Z,14.50
2017-10-03T05:20:35.203Z,14.50
2017-10-03T05:23:01.883Z,14.50
2017-10-03T05:25:28.539Z,14.50
2017-10-03T05:27:55.355Z,14.60
2017-10-03T05:30:21.585Z,14.60
2017-10-03T05:32:47.779Z,14.60
2017-10-03T05:35:14.739Z,14.60
2017-10-03T05:37:42.139Z,14.50
2017-10-03T05:40:08.655Z,14.60
2017-10-03T05:42:34.878Z,14.60
2017-10-03T05:45:02.403Z,14.60
2017-10-03T05:47:29.379Z,14.70
2017-10-03T05:49:56.330Z,14.70
2017-10-03T05:52:23.634Z,14.70
2017-10-03T05:54:50.398Z,14.70
2017-10-03T05:57:17.090Z,14.70
2017-10-03T05:59:44.061Z,14.80
2017-10-03T06:02:11.051Z,14.70
2017-10-03T06:04:37.789Z,14.80
2017-10-03T06:07:04.005Z,14.80
2017-10-03T06:09:30.219Z,14.80
2017-10-03T06:11:56.443Z,14.80
2017-10-03T06:14:23.017Z,14.90
2017-10-03T06:16:49.217Z,14.90
2017-10-03T06:19:16.201Z,15.00
2017-10-03T06:21:42.531Z,15.00
2017-10-03T06:24:09.291Z,15.10
2017-10-03T06:26:35.514Z,15.10
2017-10-03T06:29:01.915Z,15.10
2017-10-03T06:31:28.891Z,15.20
2017-10-03T06:33:55.675Z,15.20
2017-10-03T06:36:22.418Z,15.20
2017-10-03T06:38:48.635Z,15.30
2017-10-03T06:41:15.290Z,15.30
2017-10-03T06:43:42.245Z,15.30
2017-10-03T06:46:08.487Z,15.30
2017-10-03T06:48:35.101Z,15.30
2017-10-03T06:51:10.371Z,15.30
2017-10-03T06:53:37.534Z,15.40
2017-10-03T06:56:05.147Z,15.40
2017-10-03T06:58:31.381Z,15.40
2017-10-03T07:00:58.162Z,15.40
2017-10-03T07:03:25.008Z,15.50
2017-10-03T07:05:51.246Z,15.60
2017-10-03T07:08:17.527Z,15.60
2017-10-03T07:10:44.493Z,15.60
2017-10-03T07:13:10.746Z,15.60
2017-10-03T07:15:37.522Z,15.70
2017-10-03T07:18:05.719Z,15.70
2017-10-03T07:20:33.223Z,15.90
2017-10-03T07:23:00.128Z,15.90
2017-10-03T07:25:26.333Z,15.90
2017-10-03T07:27:52.538Z,15.90
2017-10-03T07:30:18.754Z,15.90
2017-10-03T07:32:44.948Z,16.00
2017-10-03T07:35:12.837Z,16.00
2017-10-03T07:37:40.789Z,16.00
2017-10-03T07:40:07.386Z,15.90
2017-10-03T07:42:34.263Z,16.00
2017-10-03T07:45:00.543Z,16.10
2017-10-03T07:47:27.901Z,16.10
2017-10-03T07:49:55.075Z,16.20
2017-10-03T07:52:22.185Z,16.20
2017-10-03T07:54:49.461Z,16.20
2017-10-03T07:57:15.906Z,16.20
2017-10-03T08:02:34.839Z,16.20
2017-10-03T08:05:01.928Z,16.30
2017-10-03T08:07:28.907Z,16.30
2017-10-03T08:09:55.161Z,16.30
2017-10-03T08:12:21.923Z,16.40
2017-10-03T08:14:48.148Z,16.40
2017-10-03T08:17:15.331Z,16.40
2017-10-03T08:19:41.564Z,16.30
2017-10-03T08:22:09.010Z,16.20
2017-10-03T08:24:35.296Z,16.20
2017-10-03T08:27:04.034Z,16.10
2017-10-03T08:29:30.253Z,16.10
2017-10-03T08:31:56.465Z,15.80
2017-10-03T08:34:22.756Z,15.40
2017-10-03T08:36:49.525Z,14.90
2017-10-03T08:39:17.163Z,14.20
2017-10-03T08:41:43.706Z,14.20
2017-10-03T08:44:10.106Z,13.90
2017-10-03T08:46:37.095Z,13.80
2017-10-03T08:49:04.099Z,13.70
2017-10-03T08:51:30.335Z,13.60
2017-10-03T08:53:56.558Z,13.50
2017-10-03T08:56:23.346Z,13.50
2017-10-03T08:58:50.413Z,13.40
2017-10-03T09:01:16.634Z,13.40
2017-10-03T09:03:43.398Z,13.40
2017-10-03T09:06:09.600Z,13.40
2017-10-03T09:08:35.836Z,13.40
2017-10-03T09:11:02.050Z,13.40
2017-10-03T09:13:28.347Z,13.40
2017-10-03T09:15:55.395Z,13.40
2017-10-03T09:18:22.333Z,13.50
2017-10-03T09:20:49.282Z,13.50
2017-10-03T09:23:16.010Z,13.50
2017-10-03T09:25:42.243Z,13.60
2017-10-03T09:28:08.449Z,13.60
2017-10-03T09:30:35.117Z,13.60
2017-10-03T09:33:01.972Z,13.60
2017-10-03T09:35:28.185Z,13.60
2017-10-03T09:37:54.916Z,13.70
2017-10-03T09:40:21.705Z,13.70
2017-10-03T09:42:48.448Z,13.80
2017-10-03T09:45:15.503Z,13.80
2017-10-03T09:47:42.036Z,13.80
2017-10-03T09:50:08.251Z,13.80
2017-10-03T09:52:34.515Z,13.70
2017-10-03T09:55:00.741Z,13.70
2017-10-03T09:57:26.960Z,13.70
2017-10-03T09:59:53.275Z,13.70
2017-10-03T10:02:19.536Z,13.60
2017-10-03T10:04:46.405Z,13.70
2017-10-03T10:07:13.237Z,13.80
2017-10-03T10:09:39.485Z,13.80
2017-10-03T10:12:05.677Z,13.90
2017-10-03T10:14:33.205Z,13.90
2017-10-03T10:17:00.269Z,13.90
2017-10-03T10:19:27.219Z,13.80
2017-10-03T10:21:54.727Z,13.80
2017-10-03T10:24:21.450Z,13.80
2017-10-03T10:26:47.645Z,13.80
2017-10-03T10:29:14.475Z,13.80
2017-10-03T10:31:40.687Z,13.80
2017-10-03T10:34:06.895Z,13.70
2017-10-03T10:36:33.121Z,13.70
2017-10-03T10:38:59.740Z,13.60
2017-10-03T10:41:26.450Z,13.60
2017-10-03T10:43:53.035Z,13.50
2017-10-03T10:46:20.331Z,13.20
2017-10-03T10:48:46.549Z,13.20
2017-10-03T10:51:12.759Z,13.00
2017-10-03T10:53:39.744Z,12.90
2017-10-03T10:56:05.965Z,12.80
2017-10-03T10:58:32.531Z,12.80
2017-10-03T11:00:58.749Z,12.90
2017-10-03T11:03:25.549Z,12.90
2017-10-03T11:05:52.381Z,13.00
2017-10-03T11:08:19.332Z,13.10
2017-10-03T11:10:46.066Z,13.10
2017-10-03T11:13:12.851Z,13.00
2017-10-03T11:15:39.050Z,13.10
2017-10-03T11:18:05.266Z,13.10
2017-10-03T11:20:31.551Z,13.10
2017-10-03T11:23:10.546Z,13.20
2017-10-03T11:25:37.148Z,13.30
2017-10-03T11:28:03.342Z,13.40
2017-10-03T11:30:30.066Z,13.50
2017-10-03T11:32:56.933Z,13.50
2017-10-03T11:35:23.141Z,13.50
2017-10-03T11:37:50.090Z,13.70
2017-10-03T11:40:16.825Z,13.70
2017-10-03T11:42:43.596Z,13.80
2017-10-03T11:45:09.803Z,13.80
2017-10-03T11:47:36.451Z,14.00
2017-10-03T11:50:02.712Z,14.10
2017-10-03T11:52:28.925Z,14.20
2017-10-03T11:54:55.999Z,14.20
2017-10-03T11:57:22.231Z,14.20
2017-10-03T11:59:48.471Z,14.20
2017-10-03T12:02:14.898Z,14.20
2017-10-03T12:04:41.558Z,14.10
2017-10-03T12:07:08.493Z,14.00
2017-10-03T12:09:34.993Z,14.00
2017-10-03T12:12:01.864Z,14.00
2017-10-03T12:14:28.741Z,14.10
2017-10-03T12:16:54.948Z,14.00
2017-10-03T12:19:21.159Z,14.10
2017-10-03T12:21:47.405Z,14.10
2017-10-03T12:24:14.981Z,14.10
2017-10-03T12:26:41.738Z,14.20
2017-10-03T12:29:07.927Z,14.30
2017-10-03T12:31:34.627Z,14.30
2017-10-03T12:34:00.842Z,14.40
2017-10-03T12:36:27.695Z,14.40
2017-10-03T12:38:53.923Z,14.50
2017-10-03T12:41:20.675Z,14.50
2017-10-03T12:43:46.875Z,14.60
2017-10-03T12:46:13.133Z,14.60
2017-10-03T12:48:39.354Z,14.60
2017-10-03T12:51:05.566Z,14.50
2017-10-03T12:53:31.883Z,14.50
2017-10-03T12:55:59.285Z,14.40
2017-10-03T12:58:25.495Z,14.40
2017-10-03T13:00:52.437Z,14.50
2017-10-03T13:03:20.039Z,14.40
2017-10-03T13:05:46.914Z,14.40
2017-10-03T13:08:13.133Z,14.40
2017-10-03T13:10:39.338Z,14.30
2017-10-03T13:13:05.949Z,14.30
2017-10-03T13:15:32.162Z,14.30
2017-10-03T13:17:58.373Z,14.20
2017-10-03T13:20:24.594Z,14.30
2017-10-03T13:22:51.243Z,14.30
2017-10-03T13:25:17.437Z,14.30
2017-10-03T13:27:44.958Z,14.40
2017-10-03T13:30:11.194Z,14.50
2017-10-03T13:32:38.249Z,14.40
2017-10-03T13:35:04.467Z,14.30
2017-10-03T13:37:31.091Z,14.40
2017-10-03T13:39:58.180Z,14.30
2017-10-03T13:42:24.371Z,14.40
2017-10-03T13:44:50.936Z,14.30
2017-10-03T13:47:17.138Z,14.30
2017-10-03T13:49:43.332Z,14.30
2017-10-03T13:52:10.879Z,14.30
2017-10-03T13:54:37.108Z,14.30
2017-10-03T13:57:03.877Z,14.30
2017-10-03T13:59:30.077Z,14.30
2017-10-03T14:01:56.274Z,14.20
2017-10-03T14:04:23.796Z,14.40
2017-10-03T14:06:50.013Z,14.50
2017-10-03T14:09:16.757Z,14.60
2017-10-03T14:11:44.139Z,14.60
2017-10-03T14:14:10.579Z,14.70
2017-10-03T14:16:37.322Z,14.70
2017-10-03T14:19:04.341Z,14.70
2017-10-03T14:21:30.695Z,14.60
2017-10-03T14:23:57.907Z,14.50
2017-10-03T14:26:24.962Z,14.50
2017-10-03T14:28:51.957Z,14.50
2017-10-03T14:31:19.012Z,14.40
2017-10-03T14:33:45.658Z,14.40
2017-10-03T14:36:12.618Z,14.40
2017-10-03T14:38:39.467Z,14.40
2017-10-03T14:41:05.963Z,14.40
2017-10-03T14:43:32.178Z,14.40
2017-10-03T14:45:59.675Z,14.40
2017-10-03T14:48:25.882Z,14.40
2017-10-03T14:50:52.104Z,14.50
2017-10-03T14:53:19.130Z,14.40
2017-10-03T14:55:46.142Z,14.40
2017-10-03T14:58:12.410Z,14.60
2017-10-03T15:00:39.333Z,14.70
2017-10-03T15:03:06.053Z,14.70
2017-10-03T15:05:32.982Z,14.70
2017-10-03T15:08:00.778Z,14.60
2017-10-03T15:10:27.020Z,14.60
2017-10-03T15:12:53.987Z,14.60
2017-10-03T15:15:20.415Z,14.70
2017-10-03T15:17:46.627Z,14.70
2017-10-03T15:20:12.941Z,14.80
2017-10-03T15:22:40.367Z,14.70
2017-10-03T15:25:06.576Z,14.60
2017-10-03T15:27:33.388Z,14.60
2017-10-03T15:30:00.444Z,14.50
2017-10-03T15:32:27.859Z,14.50
2017-10-03T15:34:54.706Z,14.60
2017-10-03T15:37:21.579Z,14.60
2017-10-03T15:39:48.231Z,14.60
2017-10-03T15:42:14.538Z,14.50
2017-10-03T15:44:40.851Z,14.40
2017-10-03T15:47:07.091Z,14.40
2017-10-03T15:49:33.575Z,14.30
2017-10-03T15:51:59.900Z,14.20
2017-10-03T15:54:26.186Z,14.20
2017-10-03T15:56:53.173Z,14.10
2017-10-03T15:59:20.267Z,14.10
2017-10-03T16:01:47.207Z,13.90
2017-10-03T16:04:14.667Z,13.80
2017-10-03T16:06:41.683Z,13.80
2017-10-03T16:09:07.890Z,13.70
2017-10-03T16:11:34.112Z,13.50
2017-10-03T16:14:00.334Z,13.50
2017-10-03T16:16:27.275Z,13.30
2017-10-03T16:18:53.663Z,13.30
2017-10-03T16:28:06.088Z,13.20
2017-10-03T16:30:32.741Z,13.10
2017-10-03T16:32:59.474Z,13.10
2017-10-03T16:35:26.224Z,13.10
2017-10-03T16:37:53.060Z,13.00
2017-10-03T16:40:19.706Z,13.10
2017-10-03T16:42:45.905Z,13.00
2017-10-03T16:45:12.202Z,13.00
2017-10-03T16:47:38.765Z,12.90
2017-10-03T16:50:04.997Z,12.80
2017-10-03T16:52:32.404Z,12.70
2017-10-03T16:54:59.563Z,12.60
2017-10-03T16:57:26.404Z,12.60
2017-10-03T16:59:53.026Z,12.60
2017-10-03T17:02:19.899Z,12.50
2017-10-03T17:04:46.508Z,12.50
2017-10-03T17:07:12.777Z,12.40
2017-10-03T17:09:39.020Z,12.30
2017-10-03T17:12:05.258Z,12.20
2017-10-03T17:14:31.485Z,12.10
2017-10-03T17:16:57.792Z,12.10
2017-10-03T17:19:24.799Z,12.00
2017-10-03T17:21:52.396Z,11.80
2017-10-03T17:24:19.183Z,11.80
2017-10-03T17:26:45.426Z,11.80
2017-10-03T17:29:12.277Z,11.70
2017-10-03T17:31:38.507Z,11.70
2017-10-03T17:34:04.714Z,11.60
2017-10-03T17:36:31.685Z,11.60
2017-10-03T17:38:59.244Z,11.50
2017-10-03T17:41:25.995Z,11.50
2017-10-03T17:43:52.194Z,11.40
2017-10-03T17:46:18.392Z,11.30
2017-10-03T17:48:45.346Z,11.20
2017-10-03T17:51:12.874Z,11.20
2017-10-03T17:53:39.836Z,11.20
2017-10-03T17:56:06.557Z,11.20
2017-10-03T17:58:32.770Z,11.20
2017-10-03T18:00:59.823Z,11.20
2017-10-03T18:03:26.049Z,11.20
2017-10-03T18:05:52.867Z,11.10
2017-10-03T18:08:19.833Z,11.10
2017-10-03T18:10:46.794Z,11.00
2017-10-03T18:13:14.506Z,10.90
2017-10-03T18:15:41.213Z,11.00
2017-10-03T18:18:07.424Z,10.90
2017-10-03T18:20:35.045Z,10.90
2017-10-03T18:23:02.324Z,11.00
2017-10-03T18:25:28.837Z,10.90
2017-10-03T18:27:55.409Z,11.00
2017-10-03T18:30:21.626Z,11.00
2017-10-03T18:32:47.839Z,11.10
2017-10-03T18:35:14.058Z,11.10
2017-10-03T18:37:41.034Z,11.10
2017-10-03T18:40:07.866Z,11.10
2017-10-03T18:42:34.050Z,11.10
2017-10-03T18:45:00.316Z,11.20
2017-10-03T18:47:26.545Z,11.20
2017-10-03T18:49:52.761Z,11.20
2017-10-03T18:52:20.188Z,11.20
2017-10-03T18:54:46.736Z,11.20
2017-10-03T18:57:13.450Z,11.30
2017-10-03T18:59:40.423Z,11.30
2017-10-03T19:02:07.227Z,11.40
2017-10-03T19:04:33.859Z,11.50
2017-10-03T19:07:01.168Z,11.40
2017-10-03T19:09:27.380Z,11.40
2017-10-03T19:11:53.577Z,11.40
2017-10-03T19:14:21.204Z,11.50
2017-10-03T19:16:47.841Z,11.40
2017-10-03T19:19:15.300Z,11.40
2017-10-03T19:21:41.500Z,11.50
2017-10-03T19:24:08.186Z,11.50
2017-10-03T19:26:34.829Z,11.40
2017-10-03T19:29:01.041Z,11.30
2017-10-03T19:31:27.251Z,11.30
2017-10-03T19:33:53.507Z,11.20
2017-10-03T19:36:19.738Z,11.20
2017-10-03T19:38:46.394Z,11.20
2017-10-03T19:41:13.005Z,11.40
2017-10-03T19:43:39.265Z,11.50
2017-10-03T19:46:05.933Z,11.50
2017-10-03T19:48:32.968Z,11.50
2017-10-03T19:50:59.178Z,11.60
2017-10-03T19:53:25.372Z,11.60
2017-10-03T19:55:52.100Z,11.70
2017-10-03T19:58:18.709Z,11.70
2017-10-03T20:00:45.364Z,11.60
2017-10-03T20:03:11.618Z,11.70
2017-10-03T20:05:38.364Z,11.70
2017-10-03T20:08:05.222Z,11.70
2017-10-03T20:10:31.420Z,11.60
2017-10-03T20:12:57.677Z,11.60
2017-10-03T20:15:24.386Z,11.60
2017-10-03T20:24:37.195Z,11.60
2017-10-03T20:27:03.797Z,11.40
2017-10-03T20:29:30.747Z,11.40
2017-10-03T20:31:57.698Z,11.40
2017-10-03T20:34:24.661Z,11.40
2017-10-03T20:36:51.626Z,11.50
2017-10-03T20:39:18.735Z,11.40
2017-10-03T20:41:45.470Z,11.50
2017-10-03T20:44:12.082Z,11.50
2017-10-03T20:46:39.674Z,11.50
2017-10-03T20:49:06.397Z,11.60
2017-10-03T20:51:32.613Z,11.60
2017-10-03T20:53:58.820Z,11.60
2017-10-03T20:56:26.163Z,11.70
2017-10-03T20:58:52.394Z,11.70
2017-10-03T21:01:19.117Z,11.70
2017-10-03T21:03:45.346Z,11.80
2017-10-03T21:06:11.957Z,11.70
2017-10-03T21:08:38.234Z,11.70
2017-10-03T21:11:04.421Z,11.80
2017-10-03T21:13:31.315Z,11.80
2017-10-03T21:15:57.526Z,11.80
2017-10-03T21:18:24.323Z,11.70
2017-10-03T21:20:51.040Z,11.80
2017-10-03T21:23:17.885Z,11.80
2017-10-03T21:25:44.082Z,11.80
2017-10-03T21:28:10.291Z,11.90
2017-10-03T21:30:37.339Z,11.90
2017-10-03T21:33:03.567Z,11.90
2017-10-03T21:35:29.852Z,11.90
2017-10-03T21:37:56.411Z,11.90
2017-10-03T21:40:23.019Z,11.90
2017-10-03T21:43:01.983Z,11.90
2017-10-03T21:45:28.222Z,11.90
2017-10-03T21:47:54.966Z,11.80
2017-10-03T21:50:21.373Z,11.70
2017-10-03T21:52:47.623Z,11.70
2017-10-03T21:55:14.347Z,11.60
2017-10-03T21:57:40.883Z,11.60
2017-10-03T22:00:07.149Z,11.60
2017-10-03T22:02:33.354Z,11.60
2017-10-03T22:05:00.147Z,11.60
2017-10-03T22:07:26.365Z,11.60
2017-10-03T22:09:52.589Z,11.60
2017-10-03T22:12:19.221Z,11.70
2017-10-03T22:14:45.872Z,11.70
2017-10-03T22:17:12.746Z,11.70
2017-10-03T22:19:39.603Z,11.80
2017-10-03T22:22:05.808Z,11.80
2017-10-03T22:24:32.482Z,11.70
2017-10-03T22:26:58.699Z,11.70
2017-10-03T22:29:25.355Z,11.70
2017-10-03T22:31:51.973Z,11.60
2017-10-03T22:34:18.820Z,11.60
2017-10-03T22:36:47.325Z,11.50
2017-10-03T22:39:14.365Z,11.40
2017-10-03T22:41:40.573Z,11.50
2017-10-03T22:44:06.792Z,11.30
2017-10-03T22:46:34.213Z,11.40
2017-10-03T22:49:00.967Z,11.40
2017-10-03T22:51:33.440Z,11.40
2017-10-03T22:53:59.634Z,11.40
2017-10-03T22:56:25.877Z,11.40
2017-10-03T22:58:52.846Z,11.50
2017-10-03T23:01:19.082Z,11.50
2017-10-03T23:03:45.936Z,11.50
2017-10-03T23:06:12.526Z,11.50
2017-10-03T23:08:39.515Z,11.50
2017-10-03T23:11:05.726Z,11.50
2017-10-03T23:13:32.587Z,11.50
2017-10-03T23:15:58.789Z,11.50
2017-10-03T23:18:24.995Z,11.60
2017-10-03T23:20:51.213Z,11.50
2017-10-03T23:23:17.844Z,11.50
2017-10-03T23:25:44.683Z,11.40
2017-10-03T23:28:11.531Z,11.30
2017-10-03T23:30:37.746Z,11.30
2017-10-03T23:33:04.588Z,11.40
2017-10-03T23:35:30.794Z,11.40
2017-10-03T23:37:57.741Z,11.50
2017-10-03T23:40:25.131Z,11.40
2017-10-03T23:42:51.397Z,11.40
2017-10-03T23:45:17.589Z,11.40
2017-10-03T23:47:43.803Z,11.30
2017-10-03T23:50:10.751Z,11.20
2017-10-03T23:52:37.776Z,11.20
2017-10-03T23:55:04.048Z,11.20
2017-10-03T23:57:31.307Z,11.20
2017-10-03T23:59:58.914Z,11.20
